createdAt,value
2022-09-22T00:01:44.884Z,101557.09
2022-09-22T00:04:15.189Z,101551.78
2022-09-22T00:06:48.712Z,101559.66
2022-09-22T00:09:21.999Z,101555.28
2022-09-22T00:11:57.663Z,101554.41
2022-09-22T00:14:30.902Z,101547.34
2022-09-22T00:17:02.258Z,101548.19
2022-09-22T00:19:33.381Z,101556.97
2022-09-22T00:22:02.679Z,101557.00
2022-09-22T00:24:32.026Z,101560.50
2022-09-22T00:27:01.938Z,101524.38
2022-09-22T00:29:32.363Z,101565.75
2022-09-22T00:32:07.199Z,101562.19
2022-09-22T00:34:36.449Z,101560.34
2022-09-22T00:37:06.430Z,101563.81
2022-09-22T00:39:36.473Z,101566.44
2022-09-22T00:42:05.978Z,101563.78
2022-09-22T00:44:40.115Z,101562.00
2022-09-22T00:47:21.752Z,101562.00
2022-09-22T00:49:54.940Z,101564.63
2022-09-22T00:52:29.989Z,101557.69
2022-09-22T00:55:02.220Z,101552.50
2022-09-22T00:57:36.507Z,101508.47
2022-09-22T01:00:10.546Z,101548.19
2022-09-22T01:02:40.185Z,101546.44
2022-09-22T01:05:10.381Z,101545.56
2022-09-22T01:07:39.471Z,101535.00
2022-09-22T01:10:09.163Z,101542.91
2022-09-22T01:12:41.869Z,101542.03
2022-09-22T01:15:25.269Z,101550.81
2022-09-22T01:18:15.899Z,101567.53
2022-09-22T01:21:32.271Z,101574.59
2022-09-22T01:24:39.684Z,101563.16
2022-09-22T01:27:49.713Z,101565.75
2022-09-22T01:30:25.362Z,101564.84
2022-09-22T01:33:16.369Z,101563.00
2022-09-22T01:35:58.817Z,101568.19
2022-09-22T01:38:37.532Z,101563.75
2022-09-22T01:41:11.907Z,101553.19
2022-09-22T01:43:48.675Z,101561.97
2022-09-22T01:46:25.261Z,101562.78
2022-09-22T01:48:57.045Z,101567.19
2022-09-22T01:51:32.048Z,101556.66
2022-09-22T01:54:07.501Z,101561.03
2022-09-22T01:56:37.930Z,101556.66
2022-09-22T01:59:11.275Z,101561.94
2022-09-22T02:01:47.197Z,101558.47
2022-09-22T02:04:21.301Z,101551.44
2022-09-22T02:06:55.425Z,101549.72
2022-09-22T02:09:27.222Z,101547.94
2022-09-22T02:11:56.277Z,101546.16
2022-09-22T02:14:26.397Z,101548.78
2022-09-22T02:16:57.314Z,101539.91
2022-09-22T02:19:31.548Z,101546.88
2022-09-22T02:22:00.812Z,101541.56
2022-09-22T02:24:32.665Z,101545.06
2022-09-22T02:27:04.957Z,101542.41
2022-09-22T02:29:39.438Z,101541.50
2022-09-22T02:32:13.894Z,101545.81
2022-09-22T02:34:47.256Z,101540.47
2022-09-22T02:37:24.058Z,101549.28
2022-09-22T02:40:07.063Z,101542.25
2022-09-22T02:42:41.165Z,101535.22
2022-09-22T02:45:16.499Z,101532.53
2022-09-22T02:47:53.234Z,101538.63
2022-09-22T02:50:24.233Z,101533.31
2022-09-22T02:52:54.467Z,101534.13
2022-09-22T02:55:23.325Z,101532.38
2022-09-22T02:57:52.098Z,101529.66
2022-09-22T03:00:22.156Z,101526.97
2022-09-22T03:02:52.453Z,101532.19
2022-09-22T03:05:21.290Z,101522.47
2022-09-22T03:07:50.061Z,101530.31
2022-09-22T03:10:19.046Z,101525.03
2022-09-22T03:13:14.500Z,101519.72
2022-09-22T03:15:36.849Z,101524.09
2022-09-22T03:18:07.181Z,101525.88
2022-09-22T03:20:36.877Z,101523.34
2022-09-22T03:23:05.673Z,101527.91
2022-09-22T03:25:34.702Z,101528.06
2022-09-22T03:28:03.841Z,101525.53
2022-09-22T03:30:33.023Z,101536.13
2022-09-22T03:33:01.938Z,101534.47
2022-09-22T03:35:32.176Z,101531.06
2022-09-22T03:38:01.039Z,101533.75
2022-09-22T03:40:29.914Z,101534.63
2022-09-22T03:42:58.837Z,101536.44
2022-09-22T03:45:28.226Z,101532.06
2022-09-22T03:47:56.986Z,101541.75
2022-09-22T03:50:25.828Z,101541.81
2022-09-22T03:52:55.987Z,101540.09
2022-09-22T03:55:25.433Z,101543.69
2022-09-22T03:57:54.220Z,101533.19
2022-09-22T04:00:23.247Z,101531.44
2022-09-22T04:02:52.139Z,101530.56
2022-09-22T04:05:20.934Z,101530.63
2022-09-22T04:07:49.745Z,101535.00
2022-09-22T04:10:20.905Z,101533.25
2022-09-22T04:12:49.723Z,101539.41
2022-09-22T04:15:18.832Z,101540.28
2022-09-22T04:17:47.617Z,101531.47
2022-09-22T04:20:16.966Z,101538.53
2022-09-22T04:22:45.801Z,101542.03
2022-09-22T04:25:14.641Z,101538.50
2022-09-22T04:27:45.205Z,101539.38
2022-09-22T04:30:14.606Z,101532.31
2022-09-22T04:32:43.497Z,101544.56
2022-09-22T04:35:13.124Z,101543.59
2022-09-22T04:37:43.021Z,101545.38
2022-09-22T04:40:12.553Z,101532.16
2022-09-22T04:42:41.648Z,101542.69
2022-09-22T04:45:13.005Z,101541.81
2022-09-22T04:47:41.841Z,101537.41
2022-09-22T04:50:12.550Z,101543.53
2022-09-22T04:52:48.066Z,101546.19
2022-09-22T04:55:34.511Z,101552.28
2022-09-22T04:58:03.422Z,101548.84
2022-09-22T05:00:33.618Z,101548.84
2022-09-22T05:03:03.502Z,101551.53
2022-09-22T05:05:32.373Z,101542.75
2022-09-22T05:08:01.772Z,101544.47
2022-09-22T05:10:32.368Z,101548.00
2022-09-22T05:13:01.344Z,101539.16
2022-09-22T05:15:32.668Z,101544.44
2022-09-22T05:18:04.178Z,101547.16
2022-09-22T05:20:33.134Z,101549.88
2022-09-22T05:23:02.075Z,101545.50
2022-09-22T05:25:31.057Z,101538.44
2022-09-22T05:28:00.118Z,101538.44
2022-09-22T05:30:29.248Z,101540.13
2022-09-22T05:32:58.058Z,101548.91
2022-09-22T05:35:30.826Z,101549.84
2022-09-22T05:38:03.962Z,101541.09
2022-09-22T05:40:32.914Z,101538.47
2022-09-22T05:43:01.808Z,101535.88
2022-09-22T05:45:30.656Z,101534.16
2022-09-22T05:47:59.632Z,101547.38
2022-09-22T05:50:32.471Z,101550.91
2022-09-22T05:53:06.403Z,101548.28
2022-09-22T05:55:35.775Z,101549.19
2022-09-22T05:58:04.882Z,101556.25
2022-09-22T06:00:34.265Z,101573.88
2022-09-22T06:03:03.584Z,101573.88
2022-09-22T06:05:37.631Z,101569.47
2022-09-22T06:08:07.942Z,101561.53
2022-09-22T06:10:38.406Z,101569.41
2022-09-22T06:13:11.095Z,101581.75
2022-09-22T06:15:41.345Z,101583.50
2022-09-22T06:18:15.309Z,101582.63
2022-09-22T06:20:46.985Z,101589.69
2022-09-22T06:23:16.164Z,101580.00
2022-09-22T06:25:45.116Z,101580.94
2022-09-22T06:28:15.772Z,101576.50
2022-09-22T06:30:44.741Z,101571.22
2022-09-22T06:33:13.763Z,101580.03
2022-09-22T06:35:45.488Z,101580.94
2022-09-22T06:38:16.186Z,101586.22
2022-09-22T06:40:45.889Z,101587.09
2022-09-22T06:43:22.733Z,101585.31
2022-09-22T06:45:53.044Z,101586.19
2022-09-22T06:48:24.099Z,101587.06
2022-09-22T06:51:04.299Z,101588.78
2022-09-22T06:53:33.339Z,101593.16
2022-09-22T06:56:06.168Z,101585.16
2022-09-22T06:59:08.348Z,101588.63
2022-09-22T07:01:33.877Z,101586.84
2022-09-22T07:04:03.058Z,101599.22
2022-09-22T07:06:38.479Z,101593.00
2022-09-22T07:09:10.331Z,101600.06
2022-09-22T07:11:40.422Z,101596.38
2022-09-22T07:14:12.753Z,101596.22
2022-09-22T07:16:43.436Z,101590.03
2022-09-22T07:19:18.247Z,101594.41
2022-09-22T07:21:49.852Z,101600.56
2022-09-22T07:24:18.728Z,101596.28
2022-09-22T07:26:47.871Z,101599.81
2022-09-22T07:29:18.694Z,101599.81
2022-09-22T07:31:47.625Z,101607.69
2022-09-22T07:34:23.258Z,101605.94
2022-09-22T07:36:53.851Z,101601.53
2022-09-22T07:39:25.230Z,101596.34
2022-09-22T07:41:54.192Z,101597.31
2022-09-22T07:44:44.316Z,101598.25
2022-09-22T07:47:13.908Z,101594.66
2022-09-22T07:49:43.080Z,101601.72
2022-09-22T07:52:14.085Z,101591.09
2022-09-22T07:54:43.029Z,101600.84
2022-09-22T07:57:12.740Z,101599.97
2022-09-22T07:59:43.543Z,101596.47
2022-09-22T08:02:12.557Z,101600.09
2022-09-22T08:04:41.368Z,101595.69
2022-09-22T08:07:10.220Z,101600.09
2022-09-22T08:09:42.429Z,101598.31
2022-09-22T08:12:15.117Z,101604.47
2022-09-22T08:14:47.911Z,101600.06
2022-09-22T08:17:23.423Z,101600.00
2022-09-22T08:19:53.945Z,101607.03
2022-09-22T08:22:23.073Z,101600.84
2022-09-22T08:24:53.464Z,101598.19
2022-09-22T08:27:22.472Z,101600.78
2022-09-22T08:29:51.271Z,101606.03
2022-09-22T08:32:20.259Z,101601.53
2022-09-22T08:34:49.253Z,101591.75
2022-09-22T08:37:18.232Z,101596.97
2022-09-22T08:39:47.079Z,101599.53
2022-09-22T08:42:22.211Z,101601.19
2022-09-22T08:45:00.431Z,101603.72
2022-09-22T08:47:54.105Z,101599.13
2022-09-22T08:50:47.782Z,101596.31
2022-09-22T08:53:21.645Z,101606.84
2022-09-22T08:55:57.138Z,101600.69
2022-09-22T08:58:40.628Z,101597.19
2022-09-22T09:01:30.546Z,101599.72
2022-09-22T09:04:16.799Z,101597.44
2022-09-22T09:06:56.390Z,101541.47
2022-09-22T09:09:43.944Z,101598.94
2022-09-22T09:12:25.816Z,101602.72
2022-09-22T09:15:22.118Z,101605.66
2022-09-22T09:17:53.432Z,101605.22
2022-09-22T09:20:32.575Z,101605.88
2022-09-22T09:23:05.103Z,101607.34
2022-09-22T09:25:38.823Z,101606.72
2022-09-22T09:28:13.865Z,101610.94
2022-09-22T09:30:52.714Z,101599.38
2022-09-22T09:33:33.596Z,101602.25
2022-09-22T09:36:03.954Z,101614.47
2022-09-22T09:38:38.947Z,101611.13
2022-09-22T09:41:15.444Z,101613.13
2022-09-22T09:43:45.667Z,101619.97
2022-09-22T09:46:27.945Z,101620.00
2022-09-22T09:49:14.603Z,101611.28
2022-09-22T09:51:46.125Z,101613.88
2022-09-22T09:54:17.965Z,101607.66
2022-09-22T09:57:09.598Z,101629.88
2022-09-22T09:59:57.074Z,101627.50
2022-09-22T10:02:33.403Z,101611.94
2022-09-22T10:05:07.790Z,101617.53
2022-09-22T10:07:44.686Z,101601.75
2022-09-22T10:10:34.278Z,101597.44
2022-09-22T10:13:39.443Z,101609.41
2022-09-22T10:16:30.848Z,101612.47
2022-09-22T10:19:25.160Z,101585.13
2022-09-22T10:21:56.137Z,101607.91
2022-09-22T10:24:32.635Z,101472.75
2022-09-22T10:27:05.196Z,101595.59
2022-09-22T10:29:36.335Z,101595.63
2022-09-22T10:32:16.364Z,101597.09
2022-09-22T10:34:48.969Z,101576.03
2022-09-22T10:37:21.053Z,101598.25
2022-09-22T10:39:52.556Z,101599.13
2022-09-22T10:42:34.357Z,101600.59
2022-09-22T10:48:14.248Z,101560.44
2022-09-22T10:51:00.128Z,101591.00
2022-09-22T10:53:59.787Z,101544.38
2022-09-22T10:56:38.205Z,101586.03
2022-09-22T10:59:32.681Z,101583.53
2022-09-22T11:02:25.783Z,101589.00
2022-09-22T11:05:01.568Z,101594.19
2022-09-22T11:08:21.906Z,101525.38
2022-09-22T11:11:20.169Z,101589.19
2022-09-22T11:14:05.836Z,101593.41
2022-09-22T11:17:03.770Z,101589.94
2022-09-22T11:19:58.829Z,101587.69
2022-09-22T11:23:00.777Z,101581.75
2022-09-22T11:25:50.681Z,101574.75
2022-09-22T11:28:35.565Z,101585.91
2022-09-22T11:31:04.586Z,101594.97
2022-09-22T11:34:01.212Z,101586.38
2022-09-22T11:36:45.832Z,101583.25
2022-09-22T11:53:58.668Z,101566.00
2022-09-22T11:56:43.546Z,101510.44
2022-09-22T11:59:31.456Z,101561.31
2022-09-22T12:02:06.406Z,101558.75
2022-09-22T12:04:55.120Z,101556.63
2022-09-22T12:07:29.710Z,101549.88
2022-09-22T12:10:04.371Z,101551.47
2022-09-22T12:12:35.330Z,101551.38
2022-09-22T12:15:17.688Z,101547.81
2022-09-22T12:17:57.083Z,101553.94
2022-09-22T12:20:41.586Z,101550.22
2022-09-22T12:23:22.144Z,101550.66
2022-09-22T12:25:58.187Z,101543.94
2022-09-22T12:28:29.688Z,101541.97
2022-09-22T12:31:14.415Z,101542.31
2022-09-22T12:34:05.641Z,101541.81
2022-09-22T12:36:59.501Z,101550.47
2022-09-22T12:39:32.083Z,101551.34
2022-09-22T12:42:04.617Z,101551.88
2022-09-22T12:44:38.757Z,101549.34
2022-09-22T12:47:22.464Z,101550.69
2022-09-22T12:49:55.518Z,101544.34
2022-09-22T12:53:04.885Z,101546.75
2022-09-22T12:55:39.461Z,101547.13
2022-09-22T12:58:46.016Z,101542.63
2022-09-22T13:01:45.016Z,101534.94
2022-09-22T13:04:20.164Z,101532.06
2022-09-22T13:07:35.723Z,101522.19
2022-09-22T13:10:56.419Z,101518.47
2022-09-22T13:13:41.480Z,101522.66
2022-09-22T13:16:45.239Z,101511.53
2022-09-22T13:19:14.886Z,101514.69
2022-09-22T13:21:43.812Z,101506.66
2022-09-22T13:24:26.545Z,101506.56
2022-09-22T13:27:05.901Z,101506.53
2022-09-22T13:29:36.581Z,101501.22
2022-09-22T13:32:26.829Z,101503.97
2022-09-22T13:34:55.951Z,101501.47
2022-09-22T13:37:25.906Z,101492.88
2022-09-22T13:39:57.256Z,101493.09
2022-09-22T13:42:31.388Z,101490.63
2022-09-22T13:45:03.848Z,101486.38
2022-09-22T13:47:35.330Z,101497.16
2022-09-22T13:50:07.946Z,101494.59
2022-09-22T13:52:39.633Z,101492.03
2022-09-22T13:55:14.129Z,101486.88
2022-09-22T13:57:44.232Z,101483.31
2022-09-22T14:00:26.501Z,101262.56
2022-09-22T14:02:58.365Z,101489.53
2022-09-22T14:05:30.214Z,101482.47
2022-09-22T14:08:20.294Z,101488.88
2022-09-22T14:10:49.933Z,101483.81
2022-09-22T14:13:41.658Z,101485.59
2022-09-22T14:16:28.046Z,101480.31
2022-09-22T14:19:06.542Z,101403.28
2022-09-22T14:21:42.584Z,101481.31
2022-09-22T14:24:15.376Z,101473.38
2022-09-22T14:26:50.409Z,101468.09
2022-09-22T14:29:29.760Z,101465.41
2022-09-22T14:32:11.822Z,101468.09
2022-09-22T14:34:49.064Z,101471.66
2022-09-22T14:37:26.350Z,101465.59
2022-09-22T14:39:57.536Z,101477.28
2022-09-22T14:42:30.851Z,101471.06
2022-09-22T14:45:21.124Z,101472.47
2022-09-22T14:48:11.157Z,101466.31
2022-09-22T14:50:45.792Z,101472.53
2022-09-22T14:53:22.214Z,101469.97
2022-09-22T14:55:54.779Z,101467.38
2022-09-22T14:58:26.014Z,101461.19
2022-09-22T15:01:15.360Z,101466.66
2022-09-22T15:03:53.342Z,101457.06
2022-09-22T15:06:23.795Z,101451.91
2022-09-22T15:08:55.115Z,101458.84
2022-09-22T15:11:49.498Z,101462.38
2022-09-22T15:14:42.064Z,101450.13
2022-09-22T15:17:59.009Z,101450.25
2022-09-22T15:20:33.361Z,101445.03
2022-09-22T15:23:04.202Z,101443.38
2022-09-22T15:25:33.273Z,101448.78
2022-09-22T15:28:07.613Z,101444.25
2022-09-22T15:30:36.259Z,101417.00
2022-09-22T15:33:05.185Z,101434.53
2022-09-22T15:35:37.979Z,101426.72
2022-09-22T15:38:17.423Z,101427.66
2022-09-22T15:40:47.389Z,101424.22
2022-09-22T15:43:19.417Z,101430.53
2022-09-22T15:45:50.643Z,101424.53
2022-09-22T15:48:29.194Z,101432.50
2022-09-22T15:51:00.020Z,101430.81
2022-09-22T15:53:31.040Z,101424.72
2022-09-22T15:56:03.439Z,101424.78
2022-09-22T15:58:36.110Z,101426.69
2022-09-22T16:01:05.807Z,101427.56
2022-09-22T16:03:41.038Z,101425.00
2022-09-22T16:06:14.207Z,101426.16
2022-09-22T16:08:51.635Z,101428.97
2022-09-22T16:11:23.415Z,101430.88
2022-09-22T16:13:53.005Z,101432.63
2022-09-22T16:16:21.929Z,101432.41
2022-09-22T16:18:50.824Z,101423.41
2022-09-22T16:21:24.589Z,101378.75
2022-09-22T16:23:58.673Z,101428.88
2022-09-22T16:26:31.903Z,101426.34
2022-09-22T16:29:01.965Z,101429.22
2022-09-22T16:31:31.161Z,101424.94
2022-09-22T16:34:01.819Z,101417.09
2022-09-22T16:36:33.185Z,101420.78
2022-09-22T16:39:04.379Z,101421.06
2022-09-22T16:41:35.060Z,101421.25
2022-09-22T16:44:04.942Z,101422.28
2022-09-22T16:46:35.722Z,101422.47
2022-09-22T16:49:08.300Z,101420.88
2022-09-22T16:51:40.104Z,101415.72
2022-09-22T16:54:12.589Z,101416.81
2022-09-22T16:56:43.453Z,101413.44
2022-09-22T16:59:15.378Z,101406.50
2022-09-22T17:01:44.779Z,101405.72
2022-09-22T17:04:17.239Z,101404.03
2022-09-22T17:06:46.855Z,101411.16
2022-09-22T17:09:17.968Z,101404.13
2022-09-22T17:11:48.767Z,101401.53
2022-09-22T17:14:21.737Z,101399.81
2022-09-22T17:16:52.877Z,101400.81
2022-09-22T17:19:24.546Z,101408.00
2022-09-22T17:21:57.191Z,101407.19
2022-09-22T17:24:29.198Z,101400.19
2022-09-22T17:26:59.991Z,101403.75
2022-09-22T17:29:31.700Z,101406.44
2022-09-22T17:32:07.883Z,101410.03
2022-09-22T17:34:38.376Z,101404.78
2022-09-22T17:37:08.400Z,101399.50
2022-09-22T17:39:38.836Z,101398.63
2022-09-22T17:42:08.025Z,101403.06
2022-09-22T17:44:36.947Z,101403.06
2022-09-22T17:47:23.829Z,101399.56
2022-09-22T17:50:10.255Z,101398.72
2022-09-22T17:52:56.668Z,101393.44
2022-09-22T17:55:27.373Z,101402.25
2022-09-22T17:57:57.410Z,101392.56
2022-09-22T18:00:27.090Z,101389.03
2022-09-22T18:02:56.956Z,101396.97
2022-09-22T18:05:34.135Z,101397.88
2022-09-22T18:08:04.011Z,101389.94
2022-09-22T18:10:34.474Z,101396.97
2022-09-22T18:13:04.528Z,101396.09
2022-09-22T18:15:33.585Z,101398.75
2022-09-22T18:18:03.142Z,101399.59
2022-09-22T18:20:33.822Z,101391.69
2022-09-22T18:23:03.069Z,101406.63
2022-09-22T18:25:34.095Z,101394.31
2022-09-22T18:28:04.024Z,101401.38
2022-09-22T18:33:37.228Z,101401.34
2022-09-22T18:36:06.417Z,101402.19
2022-09-22T18:38:42.351Z,101403.97
2022-09-22T18:41:15.837Z,101399.56
2022-09-22T18:43:48.503Z,101404.84
2022-09-22T18:46:25.114Z,101404.84
2022-09-22T18:49:07.024Z,101405.69
2022-09-22T18:52:21.588Z,101410.94
2022-09-22T18:54:59.791Z,101412.69
2022-09-22T18:57:32.737Z,101412.66
2022-09-22T19:00:40.438Z,101414.41
2022-09-22T19:03:37.507Z,101413.53
2022-09-22T19:06:06.868Z,101419.66
2022-09-22T19:08:35.741Z,101417.03
2022-09-22T19:11:04.732Z,101412.63
2022-09-22T19:13:38.191Z,101416.16
2022-09-22T19:16:07.601Z,101413.50
2022-09-22T19:18:36.518Z,101409.97
2022-09-22T19:21:05.749Z,101404.72
2022-09-22T19:23:34.767Z,101410.84
2022-09-22T19:26:04.299Z,101404.66
2022-09-22T19:28:33.391Z,101415.19
2022-09-22T19:31:03.814Z,101406.38
2022-09-22T19:33:32.796Z,101412.53
2022-09-22T19:36:01.782Z,101401.13
2022-09-22T19:38:31.486Z,101403.72
2022-09-22T19:41:00.896Z,101402.84
2022-09-22T19:43:29.821Z,101402.81
2022-09-22T19:45:58.754Z,101405.44
2022-09-22T19:48:29.066Z,101400.19
2022-09-22T19:50:59.625Z,101398.41
2022-09-22T19:53:28.587Z,101393.13
2022-09-22T19:55:58.098Z,101393.13
2022-09-22T19:58:27.226Z,101390.50
2022-09-22T20:00:56.258Z,101383.44
2022-09-22T20:03:25.889Z,101391.34
2022-09-22T20:05:56.264Z,101389.53
2022-09-22T20:08:27.202Z,101385.16
2022-09-22T20:11:16.347Z,101392.16
2022-09-22T20:14:03.150Z,101392.13
2022-09-22T20:16:32.849Z,101394.75
2022-09-22T20:19:01.736Z,101387.72
2022-09-22T20:21:33.363Z,101390.38
2022-09-22T20:24:02.384Z,101392.97
2022-09-22T20:26:31.691Z,101389.44
2022-09-22T20:29:01.172Z,101391.19
2022-09-22T20:31:30.100Z,101385.06
2022-09-22T20:33:59.230Z,101385.06
2022-09-22T20:36:28.202Z,101388.53
2022-09-22T20:38:59.152Z,101396.41
2022-09-22T20:41:28.271Z,101395.44
2022-09-22T20:43:58.474Z,101387.56
2022-09-22T20:46:27.563Z,101388.44
2022-09-22T20:48:59.039Z,101259.00
2022-09-22T20:51:28.574Z,101384.00
2022-09-22T20:53:59.040Z,101383.97
2022-09-22T20:56:27.990Z,101384.81
2022-09-22T20:58:56.791Z,101387.44
2022-09-22T21:01:25.689Z,101379.53
2022-09-22T21:03:56.062Z,101382.13
2022-09-22T21:06:25.635Z,101374.22
2022-09-22T21:09:17.173Z,101380.38
2022-09-22T21:12:05.275Z,101386.50
2022-09-22T21:14:37.275Z,101381.22
2022-09-22T21:17:36.316Z,101381.19
2022-09-22T21:20:30.486Z,101385.53
2022-09-22T21:23:09.087Z,101381.13
2022-09-22T21:25:40.572Z,101385.47
2022-09-22T21:28:09.509Z,101383.72
2022-09-22T21:30:38.401Z,101386.38
2022-09-22T21:33:12.761Z,101382.78
2022-09-22T21:36:08.996Z,101382.78
2022-09-22T21:38:45.727Z,101379.22
2022-09-22T21:41:22.371Z,101380.06
2022-09-22T21:43:51.865Z,101378.34
2022-09-22T21:46:31.008Z,101384.44
2022-09-22T21:49:02.153Z,101379.13
2022-09-22T21:51:41.399Z,101374.72
2022-09-22T21:54:15.762Z,101375.59
2022-09-22T21:56:46.883Z,101375.56
2022-09-22T21:59:38.992Z,101373.81
2022-09-22T22:02:19.205Z,101372.88
2022-09-22T22:07:39.547Z,101368.44
2022-09-22T22:10:34.485Z,101370.19
2022-09-22T22:13:14.289Z,101371.00
2022-09-22T22:16:28.611Z,101373.59
2022-09-22T22:19:21.478Z,101364.81
2022-09-22T22:22:04.553Z,101361.28
2022-09-22T22:24:42.394Z,101364.75
2022-09-22T22:27:44.457Z,101366.53
2022-09-22T22:30:22.011Z,101366.56
2022-09-22T22:32:52.599Z,101362.19
2022-09-22T22:35:25.368Z,101363.91
2022-09-22T22:41:14.196Z,101366.50
2022-09-22T22:43:54.158Z,101359.50
2022-09-22T22:46:29.025Z,101362.13
2022-09-22T22:48:58.806Z,101356.88
2022-09-22T22:51:35.450Z,101349.81
2022-09-22T22:54:32.256Z,101362.06
2022-09-22T22:57:31.581Z,101363.78
2022-09-22T23:00:10.216Z,101365.53
2022-09-22T23:02:46.180Z,101366.41
2022-09-22T23:05:22.932Z,101363.78
2022-09-22T23:07:54.543Z,101368.16
2022-09-22T23:10:26.087Z,101364.66
2022-09-22T23:12:56.726Z,101361.13
2022-09-22T23:15:30.855Z,101364.56
2022-09-22T23:18:01.293Z,101357.50
2022-09-22T23:20:30.364Z,101359.22
2022-09-22T23:22:59.175Z,101361.78
2022-09-22T23:25:28.106Z,101354.72
2022-09-22T23:27:57.032Z,101352.91
2022-09-22T23:30:25.953Z,101344.94
2022-09-22T23:32:54.821Z,101337.97
2022-09-22T23:35:25.164Z,101338.84
2022-09-22T23:37:54.038Z,101332.69
2022-09-22T23:40:22.961Z,101342.31
2022-09-22T23:42:52.040Z,101338.81
2022-09-22T23:45:21.129Z,101331.81
2022-09-22T23:47:50.104Z,101340.56
2022-09-22T23:50:19.523Z,101329.09
2022-09-22T23:52:50.989Z,101335.25
2022-09-22T23:55:20.371Z,101337.88
2022-09-22T23:57:49.225Z,101331.72
